CYQH

Watson Lake Airport

Watson Lake, , Canada
METAR CYQH 201500Z 15002KT 15SM FEW240 M29/M32 A3022 RMK CI1 SLP310
Observed Flight Rules
Feb-20 @ 15:00 UTC (22 hours ago) Visual Flight Rules
Wind Visibility Clouds
150° at 2 knots 15 miles
  • Few at 24,000' AGL
Temperatures Readings
Current -29°C / -20°F
Dewpoint -32°C / -26°F
Humidity 75%
Altimeter 30.22" Hg
Pressure 1031 hPa
Elevation 690
METAR CYQH 201500Z 15002KT 15SM FEW240 M29/M32 A3022 RMK CI1 SLP310
Observed Flight Rules
Feb-20 @ 15:00 UTC
(22 hours ago)
VFR
Wind Visibility
150° at 2 knots 15 miles
Clouds
  • Few at 24,000' AGL
Temperature Dewpoint
-29°C / -20°F -32°C / -26°F
Humidity Altimeter Pressure
75% 30.22" Hg 1031 hPa